sensor_id;sensor_type;location;lat;lon;timestamp;P1;durP1;ratioP1;P2;durP2;ratioP2
69621;SDS011;56841;55.964;37.674;2023-08-31T00:00:11;12.38;;;6.28;;
69621;SDS011;56841;55.964;37.674;2023-08-31T00:02:40;13.73;;;6.93;;
69621;SDS011;56841;55.964;37.674;2023-08-31T00:05:06;13.25;;;6.90;;
69621;SDS011;56841;55.964;37.674;2023-08-31T00:07:32;11.43;;;6.65;;
69621;SDS011;56841;55.964;37.674;2023-08-31T00:09:58;14.90;;;7.28;;
69621;SDS011;56841;55.964;37.674;2023-08-31T00:12:25;15.40;;;7.50;;
69621;SDS011;56841;55.964;37.674;2023-08-31T00:14:51;14.27;;;7.25;;
69621;SDS011;56841;55.964;37.674;2023-08-31T00:17:17;15.45;;;6.97;;
69621;SDS011;56841;55.964;37.674;2023-08-31T00:19:43;15.88;;;7.65;;
69621;SDS011;56841;55.964;37.674;2023-08-31T00:22:09;14.98;;;7.78;;
69621;SDS011;56841;55.964;37.674;2023-08-31T00:24:34;13.88;;;7.35;;
69621;SDS011;56841;55.964;37.674;2023-08-31T00:27:05;16.90;;;8.13;;
69621;SDS011;56841;55.964;37.674;2023-08-31T00:29:32;16.58;;;7.38;;
69621;SDS011;56841;55.964;37.674;2023-08-31T00:31:57;15.85;;;7.55;;
69621;SDS011;56841;55.964;37.674;2023-08-31T00:34:24;14.48;;;7.63;;
69621;SDS011;56841;55.964;37.674;2023-08-31T00:36:50;15.88;;;7.57;;
69621;SDS011;56841;55.964;37.674;2023-08-31T00:39:16;17.50;;;8.23;;
69621;SDS011;56841;55.964;37.674;2023-08-31T00:41:44;18.00;;;7.47;;
69621;SDS011;56841;55.964;37.674;2023-08-31T00:44:11;14.10;;;7.70;;
69621;SDS011;56841;55.964;37.674;2023-08-31T00:46:37;15.23;;;8.05;;
69621;SDS011;56841;55.964;37.674;2023-08-31T00:49:03;17.13;;;7.88;;
69621;SDS011;56841;55.964;37.674;2023-08-31T00:51:29;17.73;;;8.20;;
69621;SDS011;56841;55.964;37.674;2023-08-31T00:53:55;14.63;;;7.57;;
69621;SDS011;56841;55.964;37.674;2023-08-31T00:56:25;17.08;;;7.78;;
69621;SDS011;56841;55.964;37.674;2023-08-31T00:58:54;15.40;;;8.38;;
69621;SDS011;56841;55.964;37.674;2023-08-31T01:01:26;14.88;;;7.43;;
69621;SDS011;56841;55.964;37.674;2023-08-31T01:04:33;16.40;;;8.13;;
69621;SDS011;56841;55.964;37.674;2023-08-31T01:09:41;15.48;;;7.70;;
69621;SDS011;56841;55.964;37.674;2023-08-31T01:12:22;19.98;;;8.30;;
69621;SDS011;56841;55.964;37.674;2023-08-31T01:15:15;15.73;;;7.90;;
69621;SDS011;56841;55.964;37.674;2023-08-31T01:17:44;17.08;;;7.88;;
69621;SDS011;56841;55.964;37.674;2023-08-31T01:23:10;18.60;;;8.18;;
69621;SDS011;56841;55.964;37.674;2023-08-31T01:25:42;14.20;;;7.82;;
69621;SDS011;56841;55.964;37.674;2023-08-31T01:28:08;15.05;;;7.80;;
69621;SDS011;56841;55.964;37.674;2023-08-31T01:30:35;17.00;;;8.13;;
69621;SDS011;56841;55.964;37.674;2023-08-31T01:33:01;16.08;;;8.15;;
69621;SDS011;56841;55.964;37.674;2023-08-31T01:35:28;14.35;;;7.80;;
69621;SDS011;56841;55.964;37.674;2023-08-31T01:38:00;18.80;;;8.40;;
69621;SDS011;56841;55.964;37.674;2023-08-31T01:40:44;19.13;;;8.10;;
69621;SDS011;56841;55.964;37.674;2023-08-31T01:43:15;16.48;;;7.88;;
69621;SDS011;56841;55.964;37.674;2023-08-31T01:45:43;15.65;;;7.97;;
69621;SDS011;56841;55.964;37.674;2023-08-31T01:48:13;18.50;;;8.35;;
69621;SDS011;56841;55.964;37.674;2023-08-31T01:50:40;16.88;;;8.30;;
69621;SDS011;56841;55.964;37.674;2023-08-31T01:53:05;15.23;;;7.95;;
69621;SDS011;56841;55.964;37.674;2023-08-31T01:55:32;20.38;;;8.63;;
69621;SDS011;56841;55.964;37.674;2023-08-31T01:57:59;17.55;;;8.20;;
69621;SDS011;56841;55.964;37.674;2023-08-31T02:00:27;16.92;;;8.20;;
69621;SDS011;56841;55.964;37.674;2023-08-31T02:02:55;19.58;;;8.82;;
69621;SDS011;56841;55.964;37.674;2023-08-31T02:05:21;21.17;;;10.00;;
69621;SDS011;56841;55.964;37.674;2023-08-31T02:07:47;24.52;;;10.43;;
69621;SDS011;56841;55.964;37.674;2023-08-31T02:10:12;21.98;;;10.90;;
69621;SDS011;56841;55.964;37.674;2023-08-31T02:13:00;22.25;;;11.60;;
69621;SDS011;56841;55.964;37.674;2023-08-31T02:15:26;22.38;;;11.45;;
69621;SDS011;56841;55.964;37.674;2023-08-31T02:17:53;26.02;;;11.27;;
69621;SDS011;56841;55.964;37.674;2023-08-31T02:20:19;23.63;;;11.40;;
69621;SDS011;56841;55.964;37.674;2023-08-31T02:22:46;26.38;;;10.70;;
69621;SDS011;56841;55.964;37.674;2023-08-31T02:25:11;24.63;;;11.38;;
69621;SDS011;56841;55.964;37.674;2023-08-31T02:27:39;24.38;;;10.02;;
69621;SDS011;56841;55.964;37.674;2023-08-31T02:30:05;19.45;;;9.38;;
69621;SDS011;56841;55.964;37.674;2023-08-31T02:32:32;21.90;;;9.55;;
69621;SDS011;56841;55.964;37.674;2023-08-31T02:34:58;20.80;;;9.38;;
69621;SDS011;56841;55.964;37.674;2023-08-31T02:37:24;22.80;;;9.38;;
69621;SDS011;56841;55.964;37.674;2023-08-31T02:39:49;21.88;;;9.60;;
69621;SDS011;56841;55.964;37.674;2023-08-31T02:42:15;19.98;;;8.50;;
69621;SDS011;56841;55.964;37.674;2023-08-31T02:44:41;27.25;;;9.57;;
69621;SDS011;56841;55.964;37.674;2023-08-31T02:47:06;19.85;;;8.43;;
69621;SDS011;56841;55.964;37.674;2023-08-31T02:49:32;18.05;;;8.70;;
69621;SDS011;56841;55.964;37.674;2023-08-31T02:51:58;22.05;;;8.93;;
69621;SDS011;56841;55.964;37.674;2023-08-31T02:54:24;19.48;;;8.93;;
69621;SDS011;56841;55.964;37.674;2023-08-31T02:56:49;23.13;;;9.05;;
69621;SDS011;56841;55.964;37.674;2023-08-31T02:59:16;21.85;;;9.40;;
69621;SDS011;56841;55.964;37.674;2023-08-31T03:01:42;20.17;;;9.60;;
69621;SDS011;56841;55.964;37.674;2023-08-31T03:04:12;19.52;;;9.48;;
69621;SDS011;56841;55.964;37.674;2023-08-31T03:06:38;20.40;;;9.32;;
69621;SDS011;56841;55.964;37.674;2023-08-31T03:09:03;18.15;;;9.55;;
69621;SDS011;56841;55.964;37.674;2023-08-31T03:11:30;16.88;;;8.63;;
69621;SDS011;56841;55.964;37.674;2023-08-31T03:13:56;18.38;;;9.18;;
69621;SDS011;56841;55.964;37.674;2023-08-31T03:16:21;18.17;;;9.15;;
69621;SDS011;56841;55.964;37.674;2023-08-31T03:18:47;18.05;;;9.70;;
69621;SDS011;56841;55.964;37.674;2023-08-31T03:21:13;19.58;;;8.40;;
69621;SDS011;56841;55.964;37.674;2023-08-31T03:23:39;17.30;;;8.65;;
69621;SDS011;56841;55.964;37.674;2023-08-31T03:26:08;16.70;;;8.05;;
69621;SDS011;56841;55.964;37.674;2023-08-31T03:28:34;17.75;;;8.50;;
69621;SDS011;56841;55.964;37.674;2023-08-31T03:31:00;16.17;;;8.05;;
69621;SDS011;56841;55.964;37.674;2023-08-31T03:33:27;15.82;;;8.30;;
69621;SDS011;56841;55.964;37.674;2023-08-31T03:35:54;16.88;;;8.43;;
69621;SDS011;56841;55.964;37.674;2023-08-31T03:38:25;17.65;;;8.55;;
69621;SDS011;56841;55.964;37.674;2023-08-31T03:40:54;14.68;;;7.43;;
69621;SDS011;56841;55.964;37.674;2023-08-31T03:43:20;15.82;;;8.48;;
69621;SDS011;56841;55.964;37.674;2023-08-31T03:45:46;17.90;;;7.90;;
69621;SDS011;56841;55.964;37.674;2023-08-31T03:48:11;16.63;;;8.73;;
69621;SDS011;56841;55.964;37.674;2023-08-31T03:50:37;13.75;;;8.20;;
69621;SDS011;56841;55.964;37.674;2023-08-31T03:53:04;16.05;;;7.80;;
69621;SDS011;56841;55.964;37.674;2023-08-31T03:55:30;17.30;;;8.18;;
69621;SDS011;56841;55.964;37.674;2023-08-31T03:57:56;14.63;;;7.85;;
69621;SDS011;56841;55.964;37.674;2023-08-31T04:00:22;18.52;;;8.82;;
69621;SDS011;56841;55.964;37.674;2023-08-31T04:02:47;14.70;;;7.30;;
69621;SDS011;56841;55.964;37.674;2023-08-31T04:05:17;13.05;;;7.22;;
69621;SDS011;56841;55.964;37.674;2023-08-31T04:07:43;16.80;;;7.60;;
69621;SDS011;56841;55.964;37.674;2023-08-31T04:10:09;13.35;;;7.43;;
69621;SDS011;56841;55.964;37.674;2023-08-31T04:12:35;13.40;;;7.20;;
69621;SDS011;56841;55.964;37.674;2023-08-31T04:15:01;14.15;;;7.25;;
69621;SDS011;56841;55.964;37.674;2023-08-31T04:17:29;14.02;;;7.38;;
69621;SDS011;56841;55.964;37.674;2023-08-31T04:19:55;15.32;;;7.55;;
69621;SDS011;56841;55.964;37.674;2023-08-31T04:22:21;14.73;;;7.38;;
69621;SDS011;56841;55.964;37.674;2023-08-31T04:24:46;14.45;;;7.35;;
69621;SDS011;56841;55.964;37.674;2023-08-31T04:27:15;15.82;;;7.75;;
69621;SDS011;56841;55.964;37.674;2023-08-31T04:29:40;15.50;;;7.30;;
69621;SDS011;56841;55.964;37.674;2023-08-31T04:32:06;14.25;;;7.50;;
69621;SDS011;56841;55.964;37.674;2023-08-31T04:34:32;17.08;;;7.82;;
69621;SDS011;56841;55.964;37.674;2023-08-31T04:36:57;14.77;;;7.53;;
69621;SDS011;56841;55.964;37.674;2023-08-31T04:39:23;17.75;;;7.90;;
69621;SDS011;56841;55.964;37.674;2023-08-31T04:41:48;16.20;;;7.18;;
69621;SDS011;56841;55.964;37.674;2023-08-31T04:44:14;22.38;;;7.55;;
69621;SDS011;56841;55.964;37.674;2023-08-31T04:46:39;15.95;;;7.75;;
69621;SDS011;56841;55.964;37.674;2023-08-31T04:49:05;13.52;;;6.82;;
69621;SDS011;56841;55.964;37.674;2023-08-31T04:51:31;16.23;;;7.65;;
69621;SDS011;56841;55.964;37.674;2023-08-31T04:53:58;18.88;;;7.85;;
69621;SDS011;56841;55.964;37.674;2023-08-31T04:56:24;17.58;;;7.38;;
69621;SDS011;56841;55.964;37.674;2023-08-31T04:58:50;15.93;;;7.68;;
69621;SDS011;56841;55.964;37.674;2023-08-31T05:01:15;16.90;;;7.00;;
69621;SDS011;56841;55.964;37.674;2023-08-31T05:03:41;14.82;;;6.93;;
69621;SDS011;56841;55.964;37.674;2023-08-31T05:06:07;18.42;;;7.20;;
69621;SDS011;56841;55.964;37.674;2023-08-31T05:08:33;15.57;;;7.25;;
69621;SDS011;56841;55.964;37.674;2023-08-31T05:10:59;14.98;;;7.45;;
69621;SDS011;56841;55.964;37.674;2023-08-31T05:13:25;14.80;;;7.43;;
69621;SDS011;56841;55.964;37.674;2023-08-31T05:15:50;17.60;;;6.97;;
69621;SDS011;56841;55.964;37.674;2023-08-31T05:18:16;15.93;;;7.00;;
69621;SDS011;56841;55.964;37.674;2023-08-31T05:20:45;16.20;;;7.65;;
69621;SDS011;56841;55.964;37.674;2023-08-31T05:23:11;17.88;;;7.32;;
69621;SDS011;56841;55.964;37.674;2023-08-31T05:25:41;17.42;;;8.02;;
69621;SDS011;56841;55.964;37.674;2023-08-31T05:28:10;14.98;;;7.22;;
69621;SDS011;56841;55.964;37.674;2023-08-31T05:30:35;14.85;;;7.60;;
69621;SDS011;56841;55.964;37.674;2023-08-31T05:33:01;15.05;;;7.28;;
69621;SDS011;56841;55.964;37.674;2023-08-31T05:35:28;14.23;;;7.63;;
69621;SDS011;56841;55.964;37.674;2023-08-31T05:37:54;14.07;;;7.78;;
69621;SDS011;56841;55.964;37.674;2023-08-31T05:40:20;14.45;;;7.68;;
69621;SDS011;56841;55.964;37.674;2023-08-31T05:42:47;20.15;;;7.88;;
69621;SDS011;56841;55.964;37.674;2023-08-31T05:45:12;19.27;;;8.02;;
69621;SDS011;56841;55.964;37.674;2023-08-31T05:47:40;18.77;;;8.52;;
69621;SDS011;56841;55.964;37.674;2023-08-31T05:50:06;13.98;;;7.82;;
69621;SDS011;56841;55.964;37.674;2023-08-31T05:52:32;16.00;;;8.70;;
69621;SDS011;56841;55.964;37.674;2023-08-31T05:54:58;20.60;;;9.30;;
69621;SDS011;56841;55.964;37.674;2023-08-31T05:57:23;18.70;;;10.32;;
69621;SDS011;56841;55.964;37.674;2023-08-31T05:59:51;20.00;;;9.52;;
69621;SDS011;56841;55.964;37.674;2023-08-31T06:02:16;20.45;;;9.27;;
69621;SDS011;56841;55.964;37.674;2023-08-31T06:04:42;17.90;;;9.75;;
69621;SDS011;56841;55.964;37.674;2023-08-31T06:07:08;16.60;;;8.20;;
69621;SDS011;56841;55.964;37.674;2023-08-31T06:09:34;18.08;;;8.50;;
69621;SDS011;56841;55.964;37.674;2023-08-31T06:12:00;16.05;;;8.15;;
69621;SDS011;56841;55.964;37.674;2023-08-31T06:14:25;15.18;;;7.65;;
69621;SDS011;56841;55.964;37.674;2023-08-31T06:16:51;18.33;;;7.72;;
69621;SDS011;56841;55.964;37.674;2023-08-31T06:19:17;17.75;;;7.18;;
69621;SDS011;56841;55.964;37.674;2023-08-31T06:21:43;11.43;;;6.47;;
69621;SDS011;56841;55.964;37.674;2023-08-31T06:24:09;13.32;;;7.03;;
69621;SDS011;56841;55.964;37.674;2023-08-31T06:26:38;15.70;;;6.78;;
69621;SDS011;56841;55.964;37.674;2023-08-31T06:29:04;13.48;;;7.50;;
69621;SDS011;56841;55.964;37.674;2023-08-31T06:31:30;12.35;;;6.57;;
69621;SDS011;56841;55.964;37.674;2023-08-31T06:33:55;12.35;;;6.63;;
69621;SDS011;56841;55.964;37.674;2023-08-31T06:36:21;13.75;;;7.20;;
69621;SDS011;56841;55.964;37.674;2023-08-31T06:38:47;14.63;;;7.38;;
69621;SDS011;56841;55.964;37.674;2023-08-31T06:41:13;14.95;;;6.72;;
69621;SDS011;56841;55.964;37.674;2023-08-31T06:43:38;12.20;;;6.88;;
69621;SDS011;56841;55.964;37.674;2023-08-31T06:46:04;11.90;;;6.78;;
69621;SDS011;56841;55.964;37.674;2023-08-31T06:48:29;13.88;;;6.88;;
69621;SDS011;56841;55.964;37.674;2023-08-31T06:50:55;13.30;;;6.60;;
69621;SDS011;56841;55.964;37.674;2023-08-31T06:53:21;14.00;;;6.85;;
69621;SDS011;56841;55.964;37.674;2023-08-31T06:55:47;10.65;;;6.10;;
69621;SDS011;56841;55.964;37.674;2023-08-31T06:58:13;13.40;;;6.22;;
69621;SDS011;56841;55.964;37.674;2023-08-31T07:00:39;14.25;;;6.30;;
69621;SDS011;56841;55.964;37.674;2023-08-31T07:03:05;11.52;;;6.55;;
69621;SDS011;56841;55.964;37.674;2023-08-31T07:05:33;14.18;;;6.32;;
69621;SDS011;56841;55.964;37.674;2023-08-31T07:08:00;13.48;;;6.65;;
69621;SDS011;56841;55.964;37.674;2023-08-31T07:10:27;13.13;;;6.35;;
69621;SDS011;56841;55.964;37.674;2023-08-31T07:12:53;13.57;;;6.53;;
69621;SDS011;56841;55.964;37.674;2023-08-31T07:15:18;10.15;;;6.07;;
69621;SDS011;56841;55.964;37.674;2023-08-31T07:17:44;15.25;;;6.45;;
69621;SDS011;56841;55.964;37.674;2023-08-31T07:20:10;15.18;;;6.28;;
69621;SDS011;56841;55.964;37.674;2023-08-31T07:22:37;11.95;;;7.20;;
69621;SDS011;56841;55.964;37.674;2023-08-31T07:25:03;9.88;;;6.15;;
69621;SDS011;56841;55.964;37.674;2023-08-31T07:27:31;12.57;;;5.90;;
69621;SDS011;56841;55.964;37.674;2023-08-31T07:29:57;12.10;;;5.88;;
69621;SDS011;56841;55.964;37.674;2023-08-31T07:32:22;10.63;;;6.10;;
69621;SDS011;56841;55.964;37.674;2023-08-31T07:34:49;12.35;;;6.22;;
69621;SDS011;56841;55.964;37.674;2023-08-31T07:37:15;13.00;;;5.80;;
69621;SDS011;56841;55.964;37.674;2023-08-31T07:39:41;15.45;;;6.40;;
69621;SDS011;56841;55.964;37.674;2023-08-31T07:42:06;11.93;;;6.30;;
69621;SDS011;56841;55.964;37.674;2023-08-31T07:44:32;12.07;;;6.22;;
69621;SDS011;56841;55.964;37.674;2023-08-31T07:46:58;14.30;;;5.97;;
69621;SDS011;56841;55.964;37.674;2023-08-31T07:49:23;12.23;;;6.10;;
69621;SDS011;56841;55.964;37.674;2023-08-31T07:51:49;13.55;;;5.80;;
69621;SDS011;56841;55.964;37.674;2023-08-31T07:54:21;12.93;;;5.85;;
69621;SDS011;56841;55.964;37.674;2023-08-31T07:56:48;11.35;;;5.60;;
69621;SDS011;56841;55.964;37.674;2023-08-31T07:59:14;10.70;;;6.00;;
69621;SDS011;56841;55.964;37.674;2023-08-31T08:01:40;13.82;;;5.97;;
69621;SDS011;56841;55.964;37.674;2023-08-31T08:04:06;10.68;;;5.88;;
69621;SDS011;56841;55.964;37.674;2023-08-31T08:06:32;12.77;;;5.60;;
69621;SDS011;56841;55.964;37.674;2023-08-31T08:08:57;9.77;;;4.90;;
69621;SDS011;56841;55.964;37.674;2023-08-31T08:11:23;9.80;;;5.40;;
69621;SDS011;56841;55.964;37.674;2023-08-31T08:13:49;12.63;;;5.18;;
69621;SDS011;56841;55.964;37.674;2023-08-31T08:16:15;10.43;;;5.28;;
69621;SDS011;56841;55.964;37.674;2023-08-31T08:18:40;12.02;;;5.10;;
69621;SDS011;56841;55.964;37.674;2023-08-31T08:21:06;9.25;;;4.82;;
69621;SDS011;56841;55.964;37.674;2023-08-31T08:23:32;12.13;;;5.47;;
69621;SDS011;56841;55.964;37.674;2023-08-31T08:25:58;11.50;;;5.50;;
69621;SDS011;56841;55.964;37.674;2023-08-31T08:28:27;10.63;;;5.30;;
69621;SDS011;56841;55.964;37.674;2023-08-31T08:30:53;11.75;;;5.40;;
69621;SDS011;56841;55.964;37.674;2023-08-31T08:33:19;11.60;;;5.10;;
69621;SDS011;56841;55.964;37.674;2023-08-31T08:35:45;15.43;;;5.63;;
69621;SDS011;56841;55.964;37.674;2023-08-31T08:38:11;9.95;;;4.90;;
69621;SDS011;56841;55.964;37.674;2023-08-31T08:40:37;9.23;;;5.03;;
69621;SDS011;56841;55.964;37.674;2023-08-31T08:43:05;9.07;;;5.18;;
69621;SDS011;56841;55.964;37.674;2023-08-31T08:45:37;11.00;;;5.18;;
69621;SDS011;56841;55.964;37.674;2023-08-31T08:50:33;10.68;;;5.05;;
69621;SDS011;56841;55.964;37.674;2023-08-31T08:53:04;12.30;;;5.07;;
69621;SDS011;56841;55.964;37.674;2023-08-31T08:55:31;10.27;;;5.18;;
69621;SDS011;56841;55.964;37.674;2023-08-31T08:57:58;10.50;;;4.85;;
69621;SDS011;56841;55.964;37.674;2023-08-31T09:02:55;12.73;;;4.88;;
69621;SDS011;56841;55.964;37.674;2023-08-31T09:05:22;10.88;;;5.22;;
69621;SDS011;56841;55.964;37.674;2023-08-31T09:08:04;12.43;;;4.68;;
69621;SDS011;56841;55.964;37.674;2023-08-31T09:10:41;9.52;;;4.43;;
69621;SDS011;56841;55.964;37.674;2023-08-31T09:13:09;10.50;;;4.50;;
69621;SDS011;56841;55.964;37.674;2023-08-31T09:15:45;7.90;;;3.92;;
69621;SDS011;56841;55.964;37.674;2023-08-31T09:18:47;11.85;;;4.80;;
69621;SDS011;56841;55.964;37.674;2023-08-31T09:21:06;9.57;;;4.20;;
69621;SDS011;56841;55.964;37.674;2023-08-31T09:23:32;8.18;;;4.13;;
69621;SDS011;56841;55.964;37.674;2023-08-31T09:25:59;10.80;;;4.22;;
69621;SDS011;56841;55.964;37.674;2023-08-31T09:28:26;7.03;;;3.97;;
69621;SDS011;56841;55.964;37.674;2023-08-31T09:30:55;8.90;;;4.38;;
69621;SDS011;56841;55.964;37.674;2023-08-31T09:33:34;9.45;;;4.22;;
69621;SDS011;56841;55.964;37.674;2023-08-31T09:36:05;9.80;;;4.50;;
69621;SDS011;56841;55.964;37.674;2023-08-31T09:38:33;11.02;;;4.30;;
69621;SDS011;56841;55.964;37.674;2023-08-31T09:41:07;8.70;;;3.92;;
69621;SDS011;56841;55.964;37.674;2023-08-31T09:43:33;10.02;;;3.83;;
69621;SDS011;56841;55.964;37.674;2023-08-31T09:45:59;9.50;;;4.35;;
69621;SDS011;56841;55.964;37.674;2023-08-31T09:48:27;10.00;;;3.92;;
69621;SDS011;56841;55.964;37.674;2023-08-31T09:50:54;8.40;;;4.20;;
69621;SDS011;56841;55.964;37.674;2023-08-31T09:53:21;8.35;;;3.67;;
69621;SDS011;56841;55.964;37.674;2023-08-31T09:55:50;12.50;;;4.00;;
69621;SDS011;56841;55.964;37.674;2023-08-31T09:58:20;9.73;;;4.25;;
69621;SDS011;56841;55.964;37.674;2023-08-31T10:00:48;8.15;;;4.15;;
69621;SDS011;56841;55.964;37.674;2023-08-31T10:03:15;7.13;;;3.85;;
69621;SDS011;56841;55.964;37.674;2023-08-31T10:05:44;9.05;;;4.18;;
69621;SDS011;56841;55.964;37.674;2023-08-31T10:08:11;6.13;;;2.95;;
69621;SDS011;56841;55.964;37.674;2023-08-31T10:10:37;7.57;;;3.60;;
69621;SDS011;56841;55.964;37.674;2023-08-31T10:13:05;7.03;;;3.70;;
69621;SDS011;56841;55.964;37.674;2023-08-31T10:15:32;11.30;;;3.67;;
69621;SDS011;56841;55.964;37.674;2023-08-31T10:17:59;8.93;;;4.00;;
69621;SDS011;56841;55.964;37.674;2023-08-31T10:20:26;8.43;;;3.85;;
69621;SDS011;56841;55.964;37.674;2023-08-31T10:25:23;10.18;;;4.03;;
69621;SDS011;56841;55.964;37.674;2023-08-31T10:27:49;9.70;;;3.90;;
69621;SDS011;56841;55.964;37.674;2023-08-31T10:38:15;8.00;;;3.70;;
69621;SDS011;56841;55.964;37.674;2023-08-31T10:40:42;11.13;;;3.53;;
69621;SDS011;56841;55.964;37.674;2023-08-31T10:43:25;8.13;;;3.90;;
69621;SDS011;56841;55.964;37.674;2023-08-31T10:45:51;7.05;;;3.90;;
69621;SDS011;56841;55.964;37.674;2023-08-31T10:48:17;8.43;;;3.83;;
69621;SDS011;56841;55.964;37.674;2023-08-31T10:50:44;11.10;;;4.00;;
69621;SDS011;56841;55.964;37.674;2023-08-31T10:53:13;11.52;;;3.67;;
69621;SDS011;56841;55.964;37.674;2023-08-31T10:55:51;7.80;;;3.92;;
69621;SDS011;56841;55.964;37.674;2023-08-31T10:58:18;11.20;;;3.80;;
69621;SDS011;56841;55.964;37.674;2023-08-31T11:00:50;9.68;;;3.92;;
69621;SDS011;56841;55.964;37.674;2023-08-31T11:03:18;7.60;;;4.10;;
69621;SDS011;56841;55.964;37.674;2023-08-31T11:05:53;9.95;;;4.70;;
69621;SDS011;56841;55.964;37.674;2023-08-31T11:08:25;11.70;;;3.92;;
69621;SDS011;56841;55.964;37.674;2023-08-31T11:10:52;8.82;;;3.92;;
69621;SDS011;56841;55.964;37.674;2023-08-31T11:13:19;6.63;;;3.80;;
69621;SDS011;56841;55.964;37.674;2023-08-31T11:15:46;9.70;;;3.90;;
69621;SDS011;56841;55.964;37.674;2023-08-31T11:18:12;9.35;;;4.30;;
69621;SDS011;56841;55.964;37.674;2023-08-31T11:20:43;8.10;;;3.67;;
69621;SDS011;56841;55.964;37.674;2023-08-31T11:23:09;8.15;;;3.55;;
69621;SDS011;56841;55.964;37.674;2023-08-31T11:25:35;7.40;;;4.22;;
69621;SDS011;56841;55.964;37.674;2023-08-31T11:28:02;7.78;;;3.80;;
69621;SDS011;56841;55.964;37.674;2023-08-31T11:30:31;9.45;;;3.90;;
69621;SDS011;56841;55.964;37.674;2023-08-31T11:33:01;7.10;;;3.75;;
69621;SDS011;56841;55.964;37.674;2023-08-31T11:35:31;9.63;;;4.53;;
69621;SDS011;56841;55.964;37.674;2023-08-31T11:38:06;8.75;;;4.00;;
69621;SDS011;56841;55.964;37.674;2023-08-31T11:40:32;8.93;;;3.85;;
69621;SDS011;56841;55.964;37.674;2023-08-31T11:42:58;9.05;;;3.90;;
69621;SDS011;56841;55.964;37.674;2023-08-31T11:47:55;8.45;;;3.70;;
69621;SDS011;56841;55.964;37.674;2023-08-31T11:50:23;7.68;;;3.60;;
69621;SDS011;56841;55.964;37.674;2023-08-31T11:52:49;9.30;;;3.70;;
69621;SDS011;56841;55.964;37.674;2023-08-31T11:55:18;7.60;;;4.18;;
69621;SDS011;56841;55.964;37.674;2023-08-31T11:57:51;8.20;;;3.38;;
69621;SDS011;56841;55.964;37.674;2023-08-31T12:00:20;12.02;;;4.63;;
69621;SDS011;56841;55.964;37.674;2023-08-31T12:02:59;10.25;;;3.85;;
69621;SDS011;56841;55.964;37.674;2023-08-31T12:05:26;10.40;;;3.80;;
69621;SDS011;56841;55.964;37.674;2023-08-31T12:07:53;9.25;;;4.13;;
69621;SDS011;56841;55.964;37.674;2023-08-31T12:10:20;6.95;;;3.60;;
69621;SDS011;56841;55.964;37.674;2023-08-31T12:12:46;7.18;;;3.38;;
69621;SDS011;56841;55.964;37.674;2023-08-31T12:15:11;8.95;;;3.75;;
69621;SDS011;56841;55.964;37.674;2023-08-31T12:17:37;12.45;;;3.88;;
69621;SDS011;56841;55.964;37.674;2023-08-31T12:20:09;9.90;;;4.15;;
69621;SDS011;56841;55.964;37.674;2023-08-31T12:22:35;11.95;;;4.38;;
69621;SDS011;56841;55.964;37.674;2023-08-31T12:25:01;12.07;;;4.20;;
69621;SDS011;56841;55.964;37.674;2023-08-31T12:27:27;6.70;;;3.83;;
69621;SDS011;56841;55.964;37.674;2023-08-31T12:29:53;7.88;;;4.07;;
69621;SDS011;56841;55.964;37.674;2023-08-31T12:32:19;8.38;;;3.75;;
69621;SDS011;56841;55.964;37.674;2023-08-31T12:34:45;11.55;;;4.22;;
69621;SDS011;56841;55.964;37.674;2023-08-31T12:37:11;9.43;;;4.32;;
69621;SDS011;56841;55.964;37.674;2023-08-31T12:39:37;8.90;;;4.10;;
69621;SDS011;56841;55.964;37.674;2023-08-31T12:42:03;8.40;;;3.90;;
69621;SDS011;56841;55.964;37.674;2023-08-31T12:44:30;7.18;;;4.05;;
69621;SDS011;56841;55.964;37.674;2023-08-31T12:46:57;10.77;;;3.90;;
69621;SDS011;56841;55.964;37.674;2023-08-31T12:49:23;10.10;;;3.97;;
69621;SDS011;56841;55.964;37.674;2023-08-31T12:51:49;8.88;;;3.70;;
69621;SDS011;56841;55.964;37.674;2023-08-31T12:54:16;7.50;;;3.70;;
69621;SDS011;56841;55.964;37.674;2023-08-31T12:56:42;8.50;;;4.32;;
69621;SDS011;56841;55.964;37.674;2023-08-31T12:59:08;7.82;;;4.30;;
69621;SDS011;56841;55.964;37.674;2023-08-31T13:01:35;9.77;;;4.90;;
69621;SDS011;56841;55.964;37.674;2023-08-31T13:04:01;11.98;;;4.28;;
69621;SDS011;56841;55.964;37.674;2023-08-31T13:06:27;9.23;;;4.85;;
69621;SDS011;56841;55.964;37.674;2023-08-31T13:08:53;12.85;;;4.10;;
69621;SDS011;56841;55.964;37.674;2023-08-31T13:11:19;10.77;;;3.78;;
69621;SDS011;56841;55.964;37.674;2023-08-31T13:13:49;8.68;;;4.00;;
69621;SDS011;56841;55.964;37.674;2023-08-31T13:16:18;9.95;;;4.43;;
69621;SDS011;56841;55.964;37.674;2023-08-31T13:18:44;7.32;;;4.35;;
69621;SDS011;56841;55.964;37.674;2023-08-31T13:21:10;7.00;;;3.70;;
69621;SDS011;56841;55.964;37.674;2023-08-31T13:23:36;10.38;;;4.70;;
69621;SDS011;56841;55.964;37.674;2023-08-31T13:26:01;9.52;;;4.60;;
69621;SDS011;56841;55.964;37.674;2023-08-31T13:28:28;11.88;;;4.25;;
69621;SDS011;56841;55.964;37.674;2023-08-31T13:30:57;9.45;;;4.03;;
69621;SDS011;56841;55.964;37.674;2023-08-31T13:33:23;9.43;;;4.03;;
69621;SDS011;56841;55.964;37.674;2023-08-31T13:35:49;8.30;;;4.53;;
69621;SDS011;56841;55.964;37.674;2023-08-31T13:38:15;10.18;;;4.57;;
69621;SDS011;56841;55.964;37.674;2023-08-31T13:40:43;12.23;;;4.75;;
69621;SDS011;56841;55.964;37.674;2023-08-31T13:43:09;10.90;;;4.60;;
69621;SDS011;56841;55.964;37.674;2023-08-31T13:45:34;12.55;;;4.05;;
69621;SDS011;56841;55.964;37.674;2023-08-31T13:48:00;10.00;;;4.00;;
69621;SDS011;56841;55.964;37.674;2023-08-31T13:50:29;14.73;;;4.07;;
69621;SDS011;56841;55.964;37.674;2023-08-31T13:52:55;10.48;;;4.13;;
69621;SDS011;56841;55.964;37.674;2023-08-31T13:55:22;13.45;;;4.15;;
69621;SDS011;56841;55.964;37.674;2023-08-31T13:57:49;11.07;;;5.05;;
69621;SDS011;56841;55.964;37.674;2023-08-31T14:00:15;10.50;;;4.05;;
69621;SDS011;56841;55.964;37.674;2023-08-31T14:02:41;8.48;;;3.97;;
69621;SDS011;56841;55.964;37.674;2023-08-31T14:05:09;13.23;;;4.07;;
69621;SDS011;56841;55.964;37.674;2023-08-31T14:07:36;12.27;;;4.40;;
69621;SDS011;56841;55.964;37.674;2023-08-31T14:10:03;10.15;;;4.05;;
69621;SDS011;56841;55.964;37.674;2023-08-31T14:12:31;12.13;;;3.97;;
69621;SDS011;56841;55.964;37.674;2023-08-31T14:14:57;8.82;;;4.85;;
69621;SDS011;56841;55.964;37.674;2023-08-31T14:17:23;12.40;;;4.63;;
69621;SDS011;56841;55.964;37.674;2023-08-31T14:19:49;9.40;;;4.15;;
69621;SDS011;56841;55.964;37.674;2023-08-31T14:22:15;8.23;;;4.32;;
69621;SDS011;56841;55.964;37.674;2023-08-31T14:24:40;14.43;;;4.80;;
69621;SDS011;56841;55.964;37.674;2023-08-31T14:27:06;8.60;;;3.97;;
69621;SDS011;56841;55.964;37.674;2023-08-31T14:29:32;11.38;;;4.30;;
69621;SDS011;56841;55.964;37.674;2023-08-31T14:32:00;13.82;;;5.05;;
69621;SDS011;56841;55.964;37.674;2023-08-31T14:34:30;11.05;;;4.15;;
69621;SDS011;56841;55.964;37.674;2023-08-31T14:36:57;8.90;;;4.07;;
69621;SDS011;56841;55.964;37.674;2023-08-31T14:39:24;7.45;;;3.80;;
69621;SDS011;56841;55.964;37.674;2023-08-31T14:41:55;12.85;;;4.18;;
69621;SDS011;56841;55.964;37.674;2023-08-31T14:44:23;10.68;;;4.47;;
69621;SDS011;56841;55.964;37.674;2023-08-31T14:46:49;11.85;;;4.65;;